Time;durP1;ratioP1;P1;durP2;ratioP2;P2;SDS_P1;SDS_P2;PMS_P1;PMS_P2;Temp;Humidity;BMP_temperature;BMP_pressure;BME280_temperature;BME280_humidity;BME280_pressure;Samples;Min_cycle;Max_cycle;Signal;HPM_P1;HPM_P2
2022/04/05 00:02:19;;;;;;;24.33;20.23;;;8.20;99.90;;;;;;4948543;28;20220;-76
2022/04/05 00:04:46;;;;;;;23.27;20.33;;;8.20;99.90;;;;;;4956864;28;20209;-76
2022/04/05 00:07:14;;;;;;;22.43;19.53;;;8.20;99.90;;;;;;4947913;28;20237;-76
2022/04/05 00:09:43;;;;;;;22.63;18.67;;;8.20;99.90;;;;;;4957560;28;20208;-76
2022/04/05 00:12:11;;;;;;;21.90;18.97;;;8.20;99.90;;;;;;4947666;28;20196;-76
2022/04/05 00:14:39;;;;;;;22.33;18.57;;;8.20;99.90;;;;;;4960072;28;20206;-76
2022/04/05 00:17:07;;;;;;;21.20;18.90;;;8.30;99.90;;;;;;4941777;28;20801;-76
2022/04/05 00:19:36;;;;;;;19.30;16.73;;;8.30;99.90;;;;;;4952219;28;20200;-76
2022/04/05 00:22:05;;;;;;;19.93;17.13;;;8.30;99.90;;;;;;4961908;28;20226;-77
2022/04/05 00:24:32;;;;;;;20.77;16.13;;;8.40;99.90;;;;;;4946536;28;20217;-77
2022/04/05 00:27:00;;;;;;;20.03;16.53;;;8.40;99.90;;;;;;4938154;28;20227;-77
2022/04/05 00:29:29;;;;;;;17.77;14.97;;;8.40;99.90;;;;;;4948503;28;20272;-77
2022/04/05 00:31:56;;;;;;;19.90;16.00;;;8.40;99.90;;;;;;4944412;28;20182;-76
2022/04/05 00:34:25;;;;;;;17.83;14.50;;;8.40;99.90;;;;;;4949470;28;20593;-77
2022/04/05 00:36:53;;;;;;;19.83;15.33;;;8.50;99.90;;;;;;4956782;28;20610;-76
2022/04/05 00:39:21;;;;;;;18.60;15.30;;;8.40;99.90;;;;;;4943341;28;20681;-76
2022/04/05 00:41:48;;;;;;;20.73;16.50;;;8.50;99.90;;;;;;4944550;28;20239;-77
2022/04/05 00:44:16;;;;;;;19.13;15.43;;;8.50;99.90;;;;;;4946869;28;20202;-76
2022/04/05 00:46:45;;;;;;;19.13;15.37;;;8.50;99.90;;;;;;4947370;28;20245;-77
2022/04/05 00:49:17;;;;;;;20.33;15.17;;;8.50;99.90;;;;;;4961255;28;20197;-76
2022/04/05 00:51:44;;;;;;;19.70;15.17;;;8.50;99.90;;;;;;4944326;28;20198;-77
2022/04/05 00:54:14;;;;;;;19.30;14.67;;;8.50;99.90;;;;;;4946644;28;20199;-77
2022/04/05 00:56:43;;;;;;;19.23;14.10;;;8.50;99.90;;;;;;4946871;28;20229;-76
2022/04/05 00:59:12;;;;;;;20.47;15.07;;;8.50;99.90;;;;;;4963403;28;20201;-76
2022/04/05 01:01:40;;;;;;;18.20;14.40;;;8.60;99.90;;;;;;4960696;28;20217;-76
2022/04/05 01:04:10;;;;;;;19.83;15.10;;;8.60;99.90;;;;;;4962746;28;20217;-76
2022/04/05 01:06:40;;;;;;;20.20;15.13;;;8.60;99.90;;;;;;4948528;28;20237;-76
2022/04/05 01:09:09;;;;;;;20.20;14.47;;;8.60;99.90;;;;;;4949401;28;20333;-76
2022/04/05 01:11:37;;;;;;;19.87;14.67;;;8.60;99.90;;;;;;4947812;28;20213;-76
2022/04/05 01:14:14;;;;;;;18.93;14.10;;;8.60;99.90;;;;;;4949792;28;20206;-76
2022/04/05 01:16:42;;;;;;;18.20;14.33;;;8.60;99.90;;;;;;4947321;28;20688;-76
2022/04/05 01:19:11;;;;;;;20.43;15.33;;;8.60;99.90;;;;;;4949432;28;20287;-77
2022/04/05 01:21:38;;;;;;;20.40;15.10;;;8.60;99.90;;;;;;4941719;28;20552;-76
2022/04/05 01:24:12;;;;;;;20.33;15.57;;;8.70;99.90;;;;;;4947016;28;20217;-77
2022/04/05 01:26:42;;;;;;;22.43;17.47;;;8.70;99.90;;;;;;4960379;28;20229;-76
2022/04/05 01:29:13;;;;;;;19.47;15.87;;;8.70;99.90;;;;;;4945444;28;20198;-77
2022/04/05 01:31:44;;;;;;;13.53;11.20;;;8.70;99.90;;;;;;4962032;28;20640;-76
2022/04/05 01:34:12;;;;;;;9.60;8.10;;;8.60;99.90;;;;;;4960263;28;20202;-78
2022/04/05 01:36:43;;;;;;;8.40;7.27;;;8.40;99.90;;;;;;4947635;28;20230;-77
2022/04/05 01:39:13;;;;;;;8.60;7.30;;;8.40;99.90;;;;;;4940952;28;20193;-78
2022/04/05 01:41:40;;;;;;;6.37;5.47;;;8.40;99.90;;;;;;4941895;28;20216;-77
2022/04/05 01:44:09;;;;;;;5.87;5.00;;;8.30;99.90;;;;;;4941759;28;20295;-77
2022/04/05 01:46:37;;;;;;;4.70;3.63;;;8.30;99.90;;;;;;4960101;28;20711;-77
2022/04/05 01:49:07;;;;;;;3.90;3.37;;;8.30;99.90;;;;;;4952274;28;20202;-77
2022/04/05 01:51:36;;;;;;;3.73;3.33;;;8.20;99.90;;;;;;4968614;28;20209;-75
2022/04/05 01:54:05;;;;;;;3.40;3.10;;;8.20;99.90;;;;;;4963152;28;20202;-76
2022/04/05 01:56:35;;;;;;;3.80;3.37;;;8.30;99.90;;;;;;4945745;28;20225;-75
2022/04/05 01:59:02;;;;;;;3.30;3.00;;;8.20;99.90;;;;;;4947087;28;20202;-75
2022/04/05 02:01:40;;;;;;;3.40;3.10;;;8.20;99.90;;;;;;4964485;28;20197;-75
2022/04/05 02:04:09;;;;;;;3.80;3.43;;;8.20;99.90;;;;;;4944993;28;20213;-75
2022/04/05 02:06:39;;;;;;;4.20;3.30;;;8.20;99.90;;;;;;4945272;28;20217;-75
2022/04/05 02:09:07;;;;;;;3.60;3.30;;;8.10;99.90;;;;;;4949311;28;20205;-75
2022/04/05 02:11:37;;;;;;;3.53;3.20;;;8.20;99.90;;;;;;4952409;28;20208;-75
2022/04/05 02:14:16;;;;;;;3.30;3.00;;;8.20;99.90;;;;;;4959735;28;20202;-75
2022/04/05 02:16:44;;;;;;;3.10;2.80;;;8.10;99.90;;;;;;4951382;28;20579;-76
2022/04/05 02:19:13;;;;;;;3.60;3.30;;;8.10;99.90;;;;;;4960547;28;20205;-75
2022/04/05 02:21:43;;;;;;;3.23;2.73;;;8.20;99.90;;;;;;4957372;28;20205;-75
2022/04/05 02:24:11;;;;;;;3.13;2.83;;;8.10;99.90;;;;;;4955317;28;20225;-75
2022/04/05 02:26:40;;;;;;;3.00;2.80;;;8.20;99.90;;;;;;4952395;28;20718;-75
2022/04/05 02:29:09;;;;;;;3.43;3.13;;;8.20;99.90;;;;;;4944536;28;20199;-75
2022/04/05 02:31:41;;;;;;;3.03;2.70;;;8.20;99.90;;;;;;4946733;28;20205;-75
2022/04/05 02:34:11;;;;;;;3.67;3.30;;;8.20;99.90;;;;;;4944523;28;20198;-75
2022/04/05 02:36:43;;;;;;;3.30;3.00;;;8.20;99.90;;;;;;4961754;28;20222;-75
2022/04/05 02:39:15;;;;;;;3.30;3.00;;;8.20;99.90;;;;;;4947013;28;20214;-76
2022/04/05 02:41:45;;;;;;;3.47;3.17;;;8.20;99.90;;;;;;4942891;28;20203;-75
2022/04/05 02:44:14;;;;;;;3.27;2.97;;;8.20;99.90;;;;;;4959856;28;20211;-75
2022/04/05 02:46:42;;;;;;;3.60;3.30;;;8.20;99.90;;;;;;4957836;28;20241;-75
2022/04/05 02:49:13;;;;;;;4.10;3.70;;;8.30;99.90;;;;;;4956879;28;20202;-75
2022/04/05 02:51:59;;;;;;;3.60;3.30;;;8.30;99.90;;;;;;4965165;28;20214;-76
2022/04/05 02:54:35;;;;;;;4.23;3.77;;;8.40;99.90;;;;;;4964667;28;20208;-75
2022/04/05 02:57:09;;;;;;;3.73;3.43;;;8.30;99.90;;;;;;4963814;28;20228;-77
2022/04/05 02:59:37;;;;;;;4.23;3.83;;;8.20;99.90;;;;;;4963688;28;20664;-75
2022/04/05 03:02:05;;;;;;;3.50;3.20;;;8.20;99.90;;;;;;4952688;28;20669;-75
2022/04/05 03:04:35;;;;;;;3.40;3.10;;;8.20;99.90;;;;;;4940280;28;20221;-76
2022/04/05 03:07:05;;;;;;;3.87;3.40;;;8.20;99.90;;;;;;4945831;28;20558;-76
2022/04/05 03:09:32;;;;;;;3.73;3.30;;;8.30;99.90;;;;;;4962958;28;20206;-75
2022/04/05 03:12:00;;;;;;;3.73;3.33;;;8.30;99.90;;;;;;4962914;28;20201;-75
2022/04/05 03:14:30;;;;;;;4.00;3.60;;;8.30;99.90;;;;;;4948371;28;20210;-75
2022/04/05 03:16:59;;;;;;;3.20;2.90;;;8.30;99.90;;;;;;4943913;29;20226;-76
2022/04/05 03:19:35;;;;;;;2.80;2.60;;;8.30;99.90;;;;;;4950745;28;20205;-77
2022/04/05 03:22:06;;;;;;;3.80;3.10;;;8.40;99.90;;;;;;4958685;28;20197;-75
2022/04/05 03:24:33;;;;;;;4.50;3.73;;;8.30;99.90;;;;;;4951224;28;20687;-75
2022/04/05 03:27:01;;;;;;;4.40;4.00;;;8.40;99.90;;;;;;4946864;28;20262;-75
2022/04/05 03:29:31;;;;;;;5.83;4.97;;;8.30;99.90;;;;;;4951564;28;20206;-76
2022/04/05 03:32:02;;;;;;;5.90;5.30;;;8.30;99.90;;;;;;4962171;28;20205;-76
2022/04/05 03:34:32;;;;;;;5.43;4.60;;;8.40;99.90;;;;;;4942866;28;20202;-76
2022/04/05 03:37:00;;;;;;;4.97;4.40;;;8.20;99.90;;;;;;4961698;28;20643;-77
2022/04/05 03:39:29;;;;;;;4.83;4.30;;;8.20;99.90;;;;;;4955181;28;20206;-75
2022/04/05 03:41:57;;;;;;;5.07;4.57;;;8.10;99.90;;;;;;4937351;28;20222;-76
2022/04/05 03:44:25;;;;;;;5.37;4.60;;;8.10;99.90;;;;;;4948452;28;20222;-76
2022/04/05 03:46:56;;;;;;;5.27;4.77;;;8.10;99.90;;;;;;4949783;28;20233;-75
2022/04/05 03:49:25;;;;;;;5.43;4.67;;;8.10;99.90;;;;;;4946268;28;20213;-75
2022/04/05 03:51:55;;;;;;;6.40;5.70;;;8.10;99.90;;;;;;4941508;28;20186;-75
2022/04/05 03:54:23;;;;;;;7.27;6.17;;;8.10;99.90;;;;;;4952065;28;20194;-76
2022/04/05 03:56:51;;;;;;;8.70;6.37;;;8.10;99.90;;;;;;4958980;28;20218;-75
2022/04/05 03:59:21;;;;;;;7.63;6.43;;;8.00;99.90;;;;;;4964022;28;20198;-76
2022/04/05 04:01:48;;;;;;;7.60;6.33;;;8.00;99.90;;;;;;4948839;28;20194;-74
2022/04/05 04:04:19;;;;;;;9.27;6.70;;;8.00;99.90;;;;;;4965968;28;20213;-74
2022/04/05 04:06:46;;;;;;;8.40;6.80;;;8.00;99.90;;;;;;4963219;28;20228;-74
2022/04/05 04:09:14;;;;;;;9.23;6.60;;;8.00;99.90;;;;;;4942599;28;20205;-74
2022/04/05 04:11:44;;;;;;;8.13;6.50;;;7.90;99.90;;;;;;4946300;28;20208;-74
2022/04/05 04:14:12;;;;;;;8.90;6.37;;;7.90;99.90;;;;;;4960309;28;20212;-74
2022/04/05 04:16:40;;;;;;;7.63;6.40;;;7.90;99.90;;;;;;4947967;28;20598;-74
2022/04/05 04:19:07;;;;;;;9.37;7.27;;;7.90;99.90;;;;;;4962130;28;20205;-74
2022/04/05 04:21:38;;;;;;;9.90;8.27;;;8.00;99.90;;;;;;4947007;28;20221;-74
2022/04/05 04:24:07;;;;;;;9.87;8.70;;;7.90;99.90;;;;;;4957010;28;20580;-74
2022/04/05 04:26:36;;;;;;;11.70;9.20;;;7.90;99.90;;;;;;4949454;28;20228;-74
2022/04/05 04:29:04;;;;;;;10.17;8.47;;;7.90;99.90;;;;;;4945880;28;20197;-74
2022/04/05 04:31:32;;;;;;;11.43;9.37;;;8.00;99.90;;;;;;4958463;28;20688;-74
2022/04/05 04:33:59;;;;;;;13.20;10.70;;;7.90;99.90;;;;;;4947546;28;20228;-74
2022/04/05 04:36:28;;;;;;;13.03;10.57;;;7.90;99.90;;;;;;4962525;28;20225;-74
2022/04/05 04:38:57;;;;;;;12.60;11.30;;;7.90;99.90;;;;;;4946499;28;20218;-74
2022/04/05 04:41:25;;;;;;;15.27;11.70;;;7.90;99.90;;;;;;4943810;28;20209;-74
2022/04/05 04:43:53;;;;;;;14.13;11.77;;;7.90;99.90;;;;;;4948683;28;20217;-74
2022/04/05 04:46:20;;;;;;;11.60;9.70;;;7.90;99.90;;;;;;4961567;28;20225;-74
2022/04/05 04:48:48;;;;;;;13.63;10.47;;;7.90;99.90;;;;;;4946351;28;20209;-74
2022/04/05 04:51:15;;;;;;;13.70;11.30;;;7.90;99.90;;;;;;4943573;28;20588;-74
2022/04/05 04:53:43;;;;;;;14.77;11.90;;;7.90;99.90;;;;;;4939039;28;20202;-74
2022/04/05 04:56:12;;;;;;;18.23;13.80;;;8.00;99.90;;;;;;4948410;28;20279;-74
2022/04/05 04:58:39;;;;;;;20.10;14.33;;;8.00;99.90;;;;;;4944793;28;20203;-74
2022/04/05 05:01:07;;;;;;;16.27;14.07;;;8.00;99.90;;;;;;4963402;28;20217;-76
2022/04/05 05:03:34;;;;;;;17.13;14.40;;;8.00;99.90;;;;;;4946993;28;20209;-74
2022/04/05 05:06:02;;;;;;;17.67;14.93;;;8.00;99.90;;;;;;4948618;28;20683;-74
2022/04/05 05:08:29;;;;;;;18.70;14.30;;;8.00;99.90;;;;;;4963276;28;20205;-74
2022/04/05 05:10:57;;;;;;;17.67;14.73;;;7.90;99.90;;;;;;4946789;28;20201;-74
2022/04/05 05:13:26;;;;;;;21.50;16.03;;;7.90;99.90;;;;;;4946914;28;20216;-76
2022/04/05 05:15:53;;;;;;;17.93;13.63;;;7.90;99.90;;;;;;4943004;28;20198;-76
2022/04/05 05:18:21;;;;;;;15.67;12.10;;;7.90;99.90;;;;;;4942774;28;20232;-76
2022/04/05 05:20:49;;;;;;;17.03;13.53;;;7.90;99.90;;;;;;4952709;28;20201;-76
2022/04/05 05:23:17;;;;;;;16.13;11.83;;;7.90;99.90;;;;;;4951684;28;20564;-76
2022/04/05 05:25:45;;;;;;;15.13;11.93;;;7.90;99.90;;;;;;4954860;28;20727;-76
2022/04/05 05:28:12;;;;;;;15.13;12.13;;;8.00;99.90;;;;;;4952682;28;20222;-76
2022/04/05 05:30:41;;;;;;;16.13;12.53;;;7.90;99.90;;;;;;4969981;28;20203;-76
2022/04/05 05:33:09;;;;;;;14.90;11.43;;;8.00;99.90;;;;;;4953479;28;20205;-76
2022/04/05 05:35:36;;;;;;;16.70;12.90;;;8.00;99.90;;;;;;4953261;28;20558;-76
2022/04/05 05:38:04;;;;;;;14.87;11.43;;;8.00;99.90;;;;;;4958127;28;20245;-76
2022/04/05 05:40:31;;;;;;;13.00;10.90;;;7.90;99.90;;;;;;4966790;28;20201;-76
2022/04/05 05:43:01;;;;;;;13.90;10.37;;;7.90;99.90;;;;;;4951328;28;20218;-76
2022/04/05 05:45:31;;;;;;;15.60;11.17;;;8.00;99.90;;;;;;4955547;28;20210;-76
2022/04/05 05:48:00;;;;;;;15.03;10.73;;;8.10;99.90;;;;;;4969777;28;20228;-76
2022/04/05 05:50:28;;;;;;;13.93;10.60;;;8.00;99.90;;;;;;4946920;28;20207;-76
2022/04/05 05:52:56;;;;;;;16.43;10.00;;;8.00;99.90;;;;;;4948906;28;20198;-76
2022/04/05 05:55:24;;;;;;;11.70;9.60;;;8.00;99.90;;;;;;4952498;29;20232;-76
2022/04/05 05:57:52;;;;;;;12.63;8.80;;;8.00;99.90;;;;;;4940270;29;20221;-76
2022/04/05 06:00:22;;;;;;;14.23;9.47;;;8.00;99.90;;;;;;4963010;28;20205;-76
2022/04/05 06:02:52;;;;;;;13.83;9.10;;;8.00;99.90;;;;;;4943388;28;20221;-76
2022/04/05 06:05:21;;;;;;;10.63;8.70;;;8.00;99.90;;;;;;4949509;28;20210;-76
2022/04/05 06:07:49;;;;;;;12.63;9.17;;;8.00;99.90;;;;;;4947213;29;20232;-76
2022/04/05 06:10:18;;;;;;;12.30;9.80;;;8.00;99.90;;;;;;4965981;28;20202;-76
2022/04/05 06:12:48;;;;;;;13.53;10.23;;;8.10;99.90;;;;;;4968652;28;20197;-76
2022/04/05 06:15:17;;;;;;;16.73;10.73;;;8.00;99.90;;;;;;4966287;28;20205;-76
2022/04/05 06:17:46;;;;;;;13.93;10.70;;;8.10;99.90;;;;;;4952571;28;20225;-76
2022/04/05 06:20:16;;;;;;;13.07;10.57;;;8.10;99.90;;;;;;4973535;28;20201;-76
2022/04/05 06:22:52;;;;;;;14.50;10.70;;;8.10;99.90;;;;;;4957402;28;20261;-76
2022/04/05 06:25:22;;;;;;;14.17;10.07;;;8.10;99.90;;;;;;4943282;29;20225;-75
2022/04/05 06:27:49;;;;;;;14.17;10.83;;;8.10;99.90;;;;;;4959734;28;20221;-75
2022/04/05 06:30:18;;;;;;;15.50;10.30;;;8.10;99.90;;;;;;4965755;28;20218;-77
2022/04/05 06:32:46;;;;;;;14.67;10.57;;;8.10;99.90;;;;;;4953212;28;20201;-75
2022/04/05 06:35:14;;;;;;;16.03;10.50;;;8.10;99.90;;;;;;4953175;28;20205;-74
2022/04/05 06:37:44;;;;;;;18.90;11.93;;;8.20;99.90;;;;;;4948910;28;20221;-75
2022/04/05 06:40:15;;;;;;;15.20;11.40;;;8.20;99.90;;;;;;4947919;28;20209;-75
2022/04/05 06:42:44;;;;;;;16.03;12.03;;;8.20;99.90;;;;;;4956470;28;20217;-75
2022/04/05 06:45:13;;;;;;;15.90;10.97;;;8.20;99.90;;;;;;4941791;28;20206;-75
2022/04/05 06:47:41;;;;;;;17.00;12.27;;;8.20;99.90;;;;;;4941900;28;20229;-75
2022/04/05 06:50:10;;;;;;;16.57;12.57;;;8.20;99.90;;;;;;4948231;28;20205;-74
2022/04/05 06:52:38;;;;;;;16.23;11.80;;;8.20;99.90;;;;;;4960581;28;20217;-75
2022/04/05 06:55:07;;;;;;;17.30;12.97;;;8.30;99.90;;;;;;4944900;28;20202;-76
2022/04/05 06:57:36;;;;;;;17.50;12.87;;;8.30;99.90;;;;;;4958011;28;20257;-76
2022/04/05 07:00:05;;;;;;;19.43;14.10;;;8.30;99.90;;;;;;4944063;28;20218;-76
2022/04/05 07:02:32;;;;;;;18.07;13.70;;;8.30;99.90;;;;;;4946797;28;20197;-75
2022/04/05 07:05:02;;;;;;;22.47;15.30;;;8.30;99.90;;;;;;4946652;28;20225;-76
2022/04/05 07:07:30;;;;;;;20.33;14.20;;;8.30;99.90;;;;;;4949336;28;20221;-76
2022/04/05 07:10:02;;;;;;;20.47;14.40;;;8.40;99.90;;;;;;4954787;28;20201;-76
2022/04/05 07:12:29;;;;;;;19.33;14.13;;;8.40;99.90;;;;;;4966584;28;20213;-77
2022/04/05 07:14:58;;;;;;;20.90;14.47;;;8.40;99.90;;;;;;4945012;28;20209;-76
2022/04/05 07:17:26;;;;;;;26.03;16.87;;;8.40;99.90;;;;;;4946835;28;20221;-76
2022/04/05 07:19:53;;;;;;;26.63;17.77;;;8.40;99.90;;;;;;4943670;28;20186;-76
2022/04/05 07:22:20;;;;;;;26.23;17.50;;;8.40;99.90;;;;;;4949785;28;20212;-76
2022/04/05 07:24:48;;;;;;;30.97;19.77;;;8.50;99.90;;;;;;4952626;29;20245;-76
2022/04/05 07:27:16;;;;;;;30.40;19.40;;;8.60;99.90;;;;;;4960896;28;20229;-76
2022/04/05 07:29:43;;;;;;;28.47;19.80;;;8.60;99.90;;;;;;4950366;28;20233;-76
2022/04/05 07:32:12;;;;;;;32.47;22.07;;;8.60;99.90;;;;;;4975303;28;20212;-76
2022/04/05 07:34:39;;;;;;;33.40;21.53;;;8.70;99.90;;;;;;4954912;28;20214;-76
2022/04/05 07:37:09;;;;;;;33.93;22.33;;;8.70;99.90;;;;;;4961174;28;20225;-76
2022/04/05 07:39:36;;;;;;;31.37;22.60;;;8.70;99.90;;;;;;4978143;28;20664;-76
2022/04/05 07:42:04;;;;;;;29.97;22.10;;;8.80;99.90;;;;;;4959823;28;20205;-76
2022/04/05 07:44:33;;;;;;;31.47;23.30;;;8.90;99.90;;;;;;4962254;28;20208;-76
2022/04/05 07:47:00;;;;;;;35.20;24.50;;;9.00;99.90;;;;;;4949964;28;20247;-76
2022/04/05 07:49:29;;;;;;;30.97;22.90;;;9.00;99.90;;;;;;4960838;28;20213;-76
2022/04/05 07:51:56;;;;;;;29.43;23.07;;;9.10;99.90;;;;;;4958029;28;20200;-76
2022/04/05 07:54:23;;;;;;;30.83;23.83;;;9.20;99.90;;;;;;4941231;29;20213;-76
2022/04/05 07:56:51;;;;;;;34.87;23.60;;;9.30;99.90;;;;;;4963078;28;20572;-76
2022/04/05 07:59:18;;;;;;;30.43;23.43;;;9.40;99.90;;;;;;4968394;28;20194;-76
2022/04/05 08:01:46;;;;;;;29.43;23.57;;;9.40;99.90;;;;;;4963194;28;20213;-76
2022/04/05 08:04:13;;;;;;;29.80;23.03;;;9.50;99.90;;;;;;4965411;28;20539;-76
2022/04/05 08:06:42;;;;;;;25.53;22.33;;;9.50;99.90;;;;;;4951668;28;20236;-76
2022/04/05 08:09:09;;;;;;;29.87;22.97;;;9.50;99.90;;;;;;4957481;28;20193;-76
2022/04/05 08:11:36;;;;;;;25.50;21.20;;;9.60;99.90;;;;;;4951799;28;20210;-76
2022/04/05 08:14:04;;;;;;;26.97;21.87;;;9.60;99.90;;;;;;4956849;28;20207;-76
2022/04/05 08:16:31;;;;;;;27.40;21.37;;;9.60;99.90;;;;;;4953453;28;20229;-76
2022/04/05 08:18:58;;;;;;;23.93;19.07;;;9.70;99.90;;;;;;4960220;28;20213;-76
2022/04/05 08:21:26;;;;;;;26.77;19.43;;;9.70;99.90;;;;;;4970188;28;20204;-76
2022/04/05 08:23:55;;;;;;;22.53;19.17;;;9.70;99.90;;;;;;4975059;28;20201;-76
2022/04/05 08:26:23;;;;;;;24.20;19.87;;;9.70;99.90;;;;;;4948303;28;20220;-76
2022/04/05 08:28:55;;;;;;;25.10;19.57;;;9.80;99.90;;;;;;4946509;28;20204;-75
2022/04/05 08:31:22;;;;;;;24.57;19.23;;;9.80;99.90;;;;;;4946815;28;20563;-76
2022/04/05 08:33:49;;;;;;;26.57;20.67;;;9.80;99.90;;;;;;4954148;28;20193;-76
2022/04/05 08:36:17;;;;;;;23.00;20.10;;;9.90;99.90;;;;;;4958702;28;20290;-76
2022/04/05 08:38:44;;;;;;;25.73;21.43;;;9.90;99.90;;;;;;4958852;28;20201;-75
2022/04/05 08:41:14;;;;;;;22.60;20.20;;;9.90;99.90;;;;;;4950550;28;20209;-76
2022/04/05 08:43:44;;;;;;;23.97;20.87;;;9.90;99.90;;;;;;4972733;28;20205;-76
2022/04/05 08:46:11;;;;;;;24.63;20.13;;;9.90;99.90;;;;;;4960376;28;20229;-76
2022/04/05 08:48:39;;;;;;;24.80;20.67;;;9.90;99.90;;;;;;4951292;28;20209;-75
2022/04/05 08:51:07;;;;;;;25.97;21.27;;;10.00;99.90;;;;;;4947986;28;20204;-76
2022/04/05 08:53:35;;;;;;;24.90;20.03;;;10.00;99.90;;;;;;4953779;28;20205;-76
2022/04/05 08:56:03;;;;;;;21.07;18.00;;;10.00;99.90;;;;;;4951276;28;20209;-76
2022/04/05 08:58:32;;;;;;;20.50;17.20;;;10.00;99.90;;;;;;4948131;28;20570;-76
2022/04/05 09:00:59;;;;;;;19.23;17.03;;;10.00;99.90;;;;;;4944378;28;20205;-76
2022/04/05 09:03:28;;;;;;;20.50;17.97;;;10.10;99.90;;;;;;4943447;28;20217;-75
2022/04/05 09:05:55;;;;;;;22.00;18.00;;;10.10;99.90;;;;;;4942747;28;20229;-76
2022/04/05 09:08:24;;;;;;;21.93;18.43;;;10.10;99.90;;;;;;4943768;28;20248;-76
2022/04/05 09:10:53;;;;;;;23.13;18.80;;;10.20;99.90;;;;;;4960121;28;20217;-76
2022/04/05 09:13:29;;;;;;;23.07;20.40;;;10.30;99.90;;;;;;4948505;28;20206;-76
2022/04/05 09:16:04;;;;;;;22.57;19.50;;;10.40;99.90;;;;;;4946404;28;20194;-76
2022/04/05 09:18:37;;;;;;;23.93;19.43;;;10.40;99.90;;;;;;4947706;28;20194;-76
2022/04/05 09:21:06;;;;;;;22.40;20.07;;;10.40;99.90;;;;;;4950008;28;20205;-76
2022/04/05 09:23:35;;;;;;;24.03;18.63;;;10.40;99.90;;;;;;4948116;28;20201;-77
2022/04/05 09:26:07;;;;;;;24.37;19.17;;;10.40;99.90;;;;;;4964230;28;20310;-75
2022/04/05 09:28:37;;;;;;;19.87;17.40;;;10.40;99.90;;;;;;4948815;28;20217;-75
2022/04/05 09:31:08;;;;;;;18.93;15.77;;;10.40;99.90;;;;;;4963740;28;20203;-77
2022/04/05 09:33:37;;;;;;;19.07;17.03;;;10.40;99.90;;;;;;4948823;28;20216;-76
2022/04/05 09:36:09;;;;;;;19.17;15.83;;;10.50;99.90;;;;;;4951611;28;20210;-76
2022/04/05 09:38:38;;;;;;;18.80;16.57;;;10.40;99.90;;;;;;4942401;28;20205;-76
2022/04/05 09:41:13;;;;;;;18.07;15.40;;;10.50;99.90;;;;;;4948384;28;20205;-76
2022/04/05 09:43:55;;;;;;;18.13;15.87;;;10.60;99.90;;;;;;4948552;28;20205;-76
2022/04/05 09:46:25;;;;;;;16.43;14.40;;;10.60;99.90;;;;;;4945942;28;20272;-76
2022/04/05 09:49:07;;;;;;;15.63;13.53;;;10.60;99.90;;;;;;4953989;28;20202;-76
2022/04/05 09:51:41;;;;;;;14.80;13.30;;;10.60;99.90;;;;;;4959790;28;20197;-76
2022/04/05 09:54:17;;;;;;;13.43;12.03;;;10.60;99.90;;;;;;4945197;28;20206;-81
2022/04/05 09:56:45;;;;;;;15.47;13.00;;;10.60;99.90;;;;;;4964045;28;20213;-80
2022/04/05 09:59:18;;;;;;;16.43;13.67;;;10.60;99.90;;;;;;4947621;28;20202;-76
2022/04/05 10:01:48;;;;;;;17.23;15.13;;;10.60;99.90;;;;;;4946356;28;20202;-76
2022/04/05 10:04:24;;;;;;;18.00;15.67;;;10.60;99.90;;;;;;4967036;28;20213;-76
2022/04/05 10:06:52;;;;;;;18.27;14.47;;;10.60;99.90;;;;;;4953346;28;20221;-76
2022/04/05 10:09:21;;;;;;;17.27;15.47;;;10.70;99.90;;;;;;4953128;28;20212;-76
2022/04/05 10:11:49;;;;;;;15.67;14.00;;;10.70;99.90;;;;;;4966637;28;20207;-76
2022/04/05 10:14:20;;;;;;;17.80;15.43;;;10.70;99.90;;;;;;4952223;28;20201;-76
2022/04/05 10:16:50;;;;;;;17.20;15.03;;;10.70;99.90;;;;;;4965643;28;20581;-76
2022/04/05 10:19:22;;;;;;;18.53;16.50;;;10.70;99.90;;;;;;4948668;29;20213;-76
2022/04/05 10:21:50;;;;;;;20.90;17.37;;;10.70;99.90;;;;;;4966860;28;20572;-76
2022/04/05 10:24:20;;;;;;;23.07;19.43;;;10.70;99.90;;;;;;4946001;28;20673;-76
2022/04/05 10:26:49;;;;;;;23.03;20.57;;;10.70;99.90;;;;;;4949776;28;20588;-76
2022/04/05 10:29:45;;;;;;;25.27;22.23;;;10.80;99.90;;;;;;4948643;28;20204;-76
2022/04/05 10:32:25;;;;;;;29.73;23.47;;;10.80;99.90;;;;;;4948488;28;20200;-77
2022/04/05 10:34:58;;;;;;;27.67;24.10;;;10.80;99.90;;;;;;4946939;28;20198;-77
2022/04/05 10:37:31;;;;;;;24.90;22.13;;;10.80;99.90;;;;;;4941939;28;20229;-77
2022/04/05 10:40:14;;;;;;;23.90;20.97;;;10.90;99.90;;;;;;4949575;28;20189;-77
2022/04/05 10:42:46;;;;;;;19.93;17.33;;;10.90;99.90;;;;;;4947516;28;20635;-77
2022/04/05 10:45:15;;;;;;;20.73;18.10;;;10.90;99.90;;;;;;4948033;28;20229;-77
2022/04/05 10:48:12;;;;;;;20.00;17.60;;;11.00;99.90;;;;;;4939928;28;20237;-77
2022/04/05 10:50:41;;;;;;;17.10;13.60;;;11.00;99.90;;;;;;4957355;28;20213;-79
2022/04/05 10:53:14;;;;;;;15.40;13.60;;;11.50;99.90;;;;;;4946967;28;20608;-76
2022/04/05 10:56:14;;;;;;;17.57;15.60;;;12.00;99.90;;;;;;4945929;28;20656;-79
2022/04/05 10:58:57;;;;;;;19.53;16.77;;;12.00;99.90;;;;;;4948269;28;20201;-77
2022/04/05 11:01:37;;;;;;;21.90;19.10;;;12.10;99.90;;;;;;4940988;28;20210;-78
2022/04/05 11:04:41;;;;;;;19.33;17.33;;;11.80;99.90;;;;;;4948116;28;20213;-77
2022/04/05 11:07:12;;;;;;;20.50;17.83;;;11.70;99.90;;;;;;4934690;28;20222;-77
2022/04/05 11:09:55;;;;;;;18.80;16.87;;;11.70;99.90;;;;;;4949549;28;21246;-78
2022/04/05 11:12:25;;;;;;;17.20;15.50;;;11.60;99.90;;;;;;4963676;28;20208;-77
2022/04/05 11:14:54;;;;;;;17.83;16.00;;;11.50;99.90;;;;;;4953178;28;20193;-77
2022/04/05 11:17:27;;;;;;;18.33;16.53;;;11.50;99.90;;;;;;4951338;28;20248;-78
2022/04/05 11:19:57;;;;;;;20.97;17.00;;;11.40;99.90;;;;;;4949756;28;20202;-78
2022/04/05 11:22:35;;;;;;;18.70;16.70;;;11.40;99.90;;;;;;4952461;28;20210;-78
2022/04/05 11:25:06;;;;;;;14.70;13.10;;;11.40;99.90;;;;;;4965523;28;20233;-78
2022/04/05 11:27:45;;;;;;;16.33;14.63;;;11.20;99.90;;;;;;4952624;28;20320;-77
2022/04/05 11:30:37;;;;;;;16.17;14.40;;;11.20;99.90;;;;;;4950681;28;20201;-77
2022/04/05 11:33:19;;;;;;;16.23;13.47;;;11.10;99.90;;;;;;4950968;29;20214;-77
2022/04/05 11:35:58;;;;;;;14.87;13.30;;;11.20;99.90;;;;;;4947386;29;20198;-77
2022/04/05 11:38:29;;;;;;;15.33;13.77;;;11.30;99.90;;;;;;4950437;29;20611;-77
2022/04/05 11:41:00;;;;;;;14.73;13.33;;;11.30;99.90;;;;;;4967808;28;20201;-78
2022/04/05 11:43:30;;;;;;;16.77;15.07;;;11.20;99.90;;;;;;4951697;28;20213;-78
2022/04/05 11:45:59;;;;;;;17.00;15.07;;;11.20;99.90;;;;;;4944395;29;20201;-77
2022/04/05 11:48:27;;;;;;;17.53;15.70;;;11.30;99.90;;;;;;4940970;28;20591;-77
2022/04/05 11:50:58;;;;;;;16.70;15.03;;;11.30;99.90;;;;;;4958076;28;20202;-77
2022/04/05 11:53:28;;;;;;;16.33;14.47;;;11.30;99.90;;;;;;4941606;28;20213;-77
2022/04/05 11:56:13;;;;;;;16.00;14.43;;;11.40;99.90;;;;;;4943743;28;20685;-77
2022/04/05 11:58:43;;;;;;;15.27;13.77;;;11.40;99.90;;;;;;4943908;28;20547;-77
2022/04/05 12:01:12;;;;;;;14.00;12.57;;;11.50;99.90;;;;;;4964617;28;20232;-77
2022/04/05 12:03:44;;;;;;;13.20;11.33;;;11.50;99.90;;;;;;4945087;28;20232;-77
2022/04/05 12:06:13;;;;;;;11.93;10.73;;;11.40;99.90;;;;;;4941630;28;20215;-77
2022/04/05 12:08:41;;;;;;;9.77;8.77;;;11.40;99.90;;;;;;4926757;29;20214;-77
2022/04/05 12:11:10;;;;;;;10.10;8.30;;;11.50;99.90;;;;;;4935235;29;20217;-77
2022/04/05 12:13:37;;;;;;;8.70;7.80;;;11.50;99.90;;;;;;4919877;29;20209;-76
2022/04/05 12:16:07;;;;;;;8.57;7.37;;;11.50;99.90;;;;;;4936271;28;20277;-77
2022/04/05 12:18:34;;;;;;;10.13;7.73;;;11.50;99.90;;;;;;4926090;29;20559;-77
2022/04/05 12:21:04;;;;;;;8.00;7.20;;;11.50;99.90;;;;;;4923696;29;20210;-77
2022/04/05 12:23:34;;;;;;;8.20;7.40;;;11.50;99.90;;;;;;4927021;29;20206;-77
2022/04/05 12:26:08;;;;;;;8.67;7.17;;;11.50;99.90;;;;;;4932503;29;20684;-77
2022/04/05 12:28:37;;;;;;;8.83;7.93;;;11.60;99.90;;;;;;4927702;29;20626;-77
2022/04/05 12:31:09;;;;;;;8.50;7.63;;;11.50;99.90;;;;;;4950586;28;20566;-77
2022/04/05 12:33:38;;;;;;;8.93;8.03;;;11.60;99.90;;;;;;4929633;29;20219;-77
2022/04/05 12:36:06;;;;;;;7.63;6.77;;;11.70;99.90;;;;;;4929918;29;20198;-77
2022/04/05 12:38:33;;;;;;;7.93;7.10;;;11.70;99.90;;;;;;4942162;28;20218;-77
2022/04/05 12:41:04;;;;;;;6.13;5.53;;;11.70;99.90;;;;;;4935444;28;20203;-77
2022/04/05 12:43:31;;;;;;;8.67;7.17;;;11.60;99.90;;;;;;4928200;29;20202;-77
2022/04/05 12:46:10;;;;;;;7.03;6.33;;;11.60;99.90;;;;;;4949442;28;20206;-77
2022/04/05 12:48:37;;;;;;;7.33;6.63;;;11.50;99.90;;;;;;4949496;28;20217;-77
2022/04/05 12:51:06;;;;;;;8.43;6.50;;;11.40;99.90;;;;;;4927342;29;20297;-77
2022/04/05 12:53:37;;;;;;;8.37;7.57;;;11.40;99.90;;;;;;4934423;29;20210;-78
2022/04/05 12:56:14;;;;;;;7.93;7.13;;;11.40;99.90;;;;;;4944146;28;20206;-78